createdAt,value
2019-01-30T00:02:15.207Z,56264.00
2019-01-30T00:04:45.062Z,56267.08
2019-01-30T00:07:15.247Z,56248.57
2019-01-30T00:09:45.136Z,56245.49
2019-01-30T00:12:15.118Z,56266.05
2019-01-30T00:14:44.972Z,56218.75
2019-01-30T00:17:14.866Z,56248.57
2019-01-30T00:19:44.766Z,56259.88
2019-01-30T00:22:14.652Z,56279.42
2019-01-30T00:24:44.524Z,56258.86
2019-01-30T00:27:14.414Z,56244.46
2019-01-30T00:29:44.270Z,56270.17
2019-01-30T00:32:15.116Z,56267.08
2019-01-30T00:34:45.078Z,56244.46
2019-01-30T00:37:15.265Z,56282.50
2019-01-30T00:39:45.171Z,56242.40
2019-01-30T00:42:15.326Z,56264.00
2019-01-30T00:44:45.194Z,56284.56
2019-01-30T00:47:15.985Z,56273.25
2019-01-30T00:49:46.127Z,56267.08
2019-01-30T00:52:15.981Z,56261.94
2019-01-30T00:54:45.900Z,56249.60
2019-01-30T00:57:15.781Z,56268.11
2019-01-30T00:59:45.728Z,56254.74
2019-01-30T01:02:15.648Z,56266.05
2019-01-30T01:04:45.551Z,56276.34
2019-01-30T01:07:15.609Z,56281.48
2019-01-30T01:09:45.431Z,56267.08
2019-01-30T01:12:15.681Z,56264.00
2019-01-30T01:14:45.839Z,56218.75
2019-01-30T01:17:15.754Z,56259.88
2019-01-30T01:19:45.706Z,56268.11
2019-01-30T01:22:15.851Z,56286.62
2019-01-30T01:24:45.756Z,56238.29
2019-01-30T01:27:15.659Z,56230.06
2019-01-30T01:29:45.553Z,56209.50
2019-01-30T01:32:15.455Z,56254.74
2019-01-30T01:34:45.331Z,56265.03
2019-01-30T01:37:15.713Z,56289.70
2019-01-30T01:39:45.668Z,56235.20
2019-01-30T01:42:15.591Z,56242.40
2019-01-30T01:44:45.590Z,56242.40
2019-01-30T01:47:15.458Z,56276.34
2019-01-30T01:49:45.574Z,56287.65
2019-01-30T01:52:15.493Z,56258.86
2019-01-30T01:54:45.474Z,56271.20
2019-01-30T01:57:15.378Z,56302.04
2019-01-30T01:59:45.261Z,56262.97
2019-01-30T02:02:15.379Z,56259.88
2019-01-30T02:04:45.805Z,56304.10
2019-01-30T02:07:15.728Z,56265.03
2019-01-30T02:09:45.615Z,56272.22
2019-01-30T02:12:15.689Z,56283.54
2019-01-30T02:14:45.805Z,56274.28
2019-01-30T02:17:15.700Z,56269.14
2019-01-30T02:19:45.707Z,56230.06
2019-01-30T02:22:15.608Z,56252.69
2019-01-30T02:24:45.732Z,56241.37
2019-01-30T02:27:15.612Z,56246.52
2019-01-30T02:29:45.510Z,56269.14
2019-01-30T02:32:15.768Z,56228.01
2019-01-30T02:34:45.682Z,56285.59
2019-01-30T02:37:15.578Z,56248.57
2019-01-30T02:39:45.708Z,56262.97
2019-01-30T02:42:15.671Z,56298.96
2019-01-30T02:44:45.845Z,56250.63
2019-01-30T02:47:15.812Z,56252.69
2019-01-30T02:49:45.691Z,56255.77
2019-01-30T02:52:15.611Z,56286.62
2019-01-30T02:54:45.509Z,56251.66
2019-01-30T02:57:15.393Z,56252.69
2019-01-30T02:59:45.258Z,56275.31
2019-01-30T03:02:24.397Z,56260.91
2019-01-30T03:04:54.426Z,56315.41
2019-01-30T03:07:24.474Z,56229.04
2019-01-30T03:09:54.353Z,56252.69
2019-01-30T03:12:24.716Z,56273.25
2019-01-30T03:14:54.632Z,56254.74
2019-01-30T03:17:24.738Z,56283.54
2019-01-30T03:19:54.860Z,56306.16
2019-01-30T03:22:24.761Z,56264.00
2019-01-30T03:24:54.914Z,56281.48
2019-01-30T03:27:24.809Z,56267.08
2019-01-30T03:29:54.723Z,56271.20
2019-01-30T03:32:24.571Z,56278.39
2019-01-30T03:34:54.718Z,56267.08
2019-01-30T03:37:24.584Z,56248.57
2019-01-30T03:39:54.460Z,56258.86
2019-01-30T03:42:24.669Z,56253.71
2019-01-30T03:44:54.537Z,56271.20
2019-01-30T03:47:24.399Z,56284.56
2019-01-30T03:49:54.373Z,56216.70
2019-01-30T03:52:24.489Z,56256.80
2019-01-30T03:54:54.368Z,56246.52
2019-01-30T03:57:24.254Z,56283.54
2019-01-30T03:59:54.237Z,56236.23
2019-01-30T04:02:24.168Z,56250.63
2019-01-30T04:04:54.068Z,56280.45
2019-01-30T04:07:24.229Z,56297.93
2019-01-30T04:09:54.356Z,56258.86
2019-01-30T04:12:24.502Z,56267.08
2019-01-30T04:14:54.440Z,56238.29
2019-01-30T04:17:24.516Z,56276.34
2019-01-30T04:19:54.418Z,56246.52
2019-01-30T04:22:24.810Z,56268.11
2019-01-30T04:24:54.979Z,56297.93
2019-01-30T04:27:24.875Z,56252.69
2019-01-30T04:29:54.787Z,56252.69
2019-01-30T04:32:24.964Z,56251.66
2019-01-30T04:34:55.045Z,56273.25
2019-01-30T04:37:24.939Z,56265.03
2019-01-30T04:39:55.099Z,56232.12
2019-01-30T04:42:25.043Z,56281.48
2019-01-30T04:44:55.408Z,56283.54
2019-01-30T04:47:25.344Z,56279.42
2019-01-30T04:49:55.202Z,56260.91
2019-01-30T04:52:25.098Z,56279.42
2019-01-30T04:54:55.191Z,56272.22
2019-01-30T04:57:25.101Z,56258.86
2019-01-30T04:59:55.548Z,56244.46
2019-01-30T05:02:25.433Z,56291.76
2019-01-30T05:04:55.631Z,56254.74
2019-01-30T05:07:25.490Z,56290.73
2019-01-30T05:09:55.683Z,56261.94
2019-01-30T05:12:25.613Z,56287.65
2019-01-30T05:14:55.509Z,56283.54
2019-01-30T05:17:25.594Z,56302.04
2019-01-30T05:19:55.433Z,56279.42
2019-01-30T05:22:26.069Z,56252.69
2019-01-30T05:24:56.009Z,56250.63
2019-01-30T05:27:26.111Z,56252.69
2019-01-30T05:29:56.233Z,56273.25
2019-01-30T05:32:26.078Z,56252.69
2019-01-30T05:34:55.962Z,56271.20
2019-01-30T05:37:26.131Z,56277.36
2019-01-30T05:39:56.026Z,56284.56
2019-01-30T05:42:26.115Z,56289.70
2019-01-30T05:44:56.005Z,56266.05
2019-01-30T05:47:25.924Z,56242.40
2019-01-30T05:49:55.820Z,56259.88
2019-01-30T05:52:25.719Z,56280.45
2019-01-30T05:54:55.894Z,56259.88
2019-01-30T05:57:25.757Z,56260.91
2019-01-30T05:59:55.617Z,56295.88
2019-01-30T06:02:25.558Z,56281.48
2019-01-30T06:04:55.729Z,56250.63
2019-01-30T06:07:25.579Z,56281.48
2019-01-30T06:09:55.492Z,56289.70
2019-01-30T06:12:25.401Z,56278.39
2019-01-30T06:14:55.426Z,56275.31
2019-01-30T06:17:25.280Z,56318.50
2019-01-30T06:19:55.175Z,56237.26
2019-01-30T06:22:25.029Z,56274.28
2019-01-30T06:24:54.941Z,56262.97
2019-01-30T06:27:24.790Z,56271.20
2019-01-30T06:29:54.659Z,56267.08
2019-01-30T06:32:24.591Z,56250.63
2019-01-30T06:34:56.641Z,56266.05
2019-01-30T06:37:26.153Z,56261.94
2019-01-30T06:39:56.020Z,56265.03
2019-01-30T06:42:25.883Z,56316.44
2019-01-30T06:44:55.760Z,56278.39
2019-01-30T06:47:25.641Z,56262.97
2019-01-30T06:49:55.760Z,56270.17
2019-01-30T06:52:25.638Z,56280.45
2019-01-30T06:54:55.826Z,56284.56
2019-01-30T06:57:25.708Z,56289.70
2019-01-30T06:59:55.573Z,56275.31
2019-01-30T07:02:32.021Z,56258.86
2019-01-30T07:04:57.239Z,56223.89
2019-01-30T07:07:27.077Z,56274.28
2019-01-30T07:09:57.052Z,56253.71
2019-01-30T07:12:26.917Z,56269.14
2019-01-30T07:14:57.052Z,56275.31
2019-01-30T07:17:26.888Z,56264.00
2019-01-30T07:19:57.037Z,56261.94
2019-01-30T07:22:26.952Z,56251.66
2019-01-30T07:24:56.809Z,56220.81
2019-01-30T07:27:26.690Z,56256.80
2019-01-30T07:29:56.591Z,56269.14
2019-01-30T07:32:26.448Z,56239.32
2019-01-30T07:34:56.325Z,56247.54
2019-01-30T07:37:26.436Z,56225.95
2019-01-30T07:39:56.303Z,56251.66
2019-01-30T07:42:26.451Z,56252.69
2019-01-30T07:44:56.306Z,56214.64
2019-01-30T07:47:26.264Z,56271.20
2019-01-30T07:49:56.144Z,56252.69
2019-01-30T07:52:26.176Z,56211.55
2019-01-30T07:54:56.029Z,56237.26
2019-01-30T07:57:25.886Z,56247.54
2019-01-30T07:59:55.772Z,56232.12
2019-01-30T08:02:25.623Z,56237.26
2019-01-30T08:04:55.826Z,56256.80
2019-01-30T08:07:27.670Z,56261.94
2019-01-30T08:09:57.951Z,56255.77
2019-01-30T08:12:27.834Z,56242.40
2019-01-30T08:14:57.751Z,56246.52
2019-01-30T08:17:27.629Z,56240.34
2019-01-30T08:19:57.784Z,56261.94
2019-01-30T08:22:27.655Z,56253.71
2019-01-30T08:24:57.607Z,56248.57
2019-01-30T08:27:27.886Z,56209.50
2019-01-30T08:29:58.053Z,56240.34
2019-01-30T08:32:28.264Z,56221.84
2019-01-30T08:34:58.419Z,56234.18
2019-01-30T08:37:28.250Z,56259.88
2019-01-30T08:39:58.086Z,56218.75
2019-01-30T08:42:28.173Z,56250.63
2019-01-30T08:44:58.783Z,56220.81
2019-01-30T08:47:28.663Z,56232.12
2019-01-30T08:49:59.018Z,56246.52
2019-01-30T08:52:28.882Z,56228.01
2019-01-30T08:54:58.738Z,56249.60
2019-01-30T08:57:28.622Z,56250.63
2019-01-30T08:59:58.481Z,56225.95
2019-01-30T09:02:28.328Z,56246.52
2019-01-30T09:04:58.459Z,56255.77
2019-01-30T09:07:28.579Z,56199.21
2019-01-30T09:09:58.474Z,56220.81
2019-01-30T09:12:28.391Z,56222.87
2019-01-30T09:14:58.502Z,56218.75
2019-01-30T09:17:28.362Z,56202.30
2019-01-30T09:19:58.198Z,56217.72
2019-01-30T09:22:28.094Z,56178.65
2019-01-30T09:24:58.293Z,56188.93
2019-01-30T09:27:29.030Z,56161.17
2019-01-30T09:29:58.816Z,56196.13
2019-01-30T09:32:28.923Z,56160.14
2019-01-30T09:34:59.022Z,56204.36
2019-01-30T09:37:28.882Z,56193.05
2019-01-30T09:39:58.777Z,56156.03
2019-01-30T09:42:28.596Z,56181.73
2019-01-30T09:44:58.421Z,56186.87
2019-01-30T09:47:28.276Z,56197.16
2019-01-30T09:49:58.135Z,56164.25
2019-01-30T09:52:28.001Z,56158.09
2019-01-30T09:54:57.942Z,56147.80
2019-01-30T09:57:27.837Z,56201.27
2019-01-30T09:59:58.906Z,56202.30
2019-01-30T10:02:28.770Z,56211.55
2019-01-30T10:04:58.660Z,56217.72
2019-01-30T10:07:28.530Z,56222.87
2019-01-30T10:09:58.448Z,56230.06
2019-01-30T10:12:28.301Z,56238.29
2019-01-30T10:14:58.222Z,56217.72
2019-01-30T10:17:28.124Z,56218.75
2019-01-30T10:19:57.976Z,56212.58
2019-01-30T10:22:27.916Z,56195.10
2019-01-30T10:24:57.989Z,56239.32
2019-01-30T10:27:27.908Z,56197.16
2019-01-30T10:29:58.818Z,56201.27
2019-01-30T10:32:29.531Z,56244.46
2019-01-30T10:34:59.365Z,56217.72
2019-01-30T10:37:29.241Z,56197.16
2019-01-30T10:39:59.082Z,56201.27
2019-01-30T10:42:28.986Z,56216.70
2019-01-30T10:44:58.870Z,56190.99
2019-01-30T10:47:29.224Z,56193.05
2019-01-30T10:49:59.056Z,56218.75
2019-01-30T10:52:28.933Z,56237.26
2019-01-30T10:54:58.826Z,56199.21
2019-01-30T10:57:28.737Z,56204.36
2019-01-30T10:59:58.597Z,56213.61
2019-01-30T11:02:28.464Z,56194.07
2019-01-30T11:04:58.309Z,56209.50
2019-01-30T11:07:28.194Z,56218.75
2019-01-30T11:09:58.103Z,56199.21
2019-01-30T11:12:28.208Z,56199.21
2019-01-30T11:14:59.177Z,56207.44
2019-01-30T11:17:29.075Z,56212.58
2019-01-30T11:19:58.948Z,56213.61
2019-01-30T11:22:29.112Z,56188.93
2019-01-30T11:24:59.241Z,56216.70
2019-01-30T11:27:29.094Z,56197.16
2019-01-30T11:29:59.199Z,56206.41
2019-01-30T11:32:29.145Z,56188.93
2019-01-30T11:34:59.282Z,56201.27
2019-01-30T11:37:29.293Z,56167.34
2019-01-30T11:39:59.399Z,56229.04
2019-01-30T11:42:29.772Z,56202.30
2019-01-30T11:44:59.637Z,56205.38
2019-01-30T11:47:29.833Z,56222.87
2019-01-30T11:50:00.047Z,56197.16
2019-01-30T11:52:29.963Z,56207.44
2019-01-30T11:55:00.095Z,56182.76
2019-01-30T11:57:30.309Z,56205.38
2019-01-30T12:00:00.331Z,56221.84
2019-01-30T12:02:30.214Z,56205.38
2019-01-30T12:05:00.105Z,56209.50
2019-01-30T12:07:30.158Z,56197.16
2019-01-30T12:10:00.227Z,56195.10
2019-01-30T12:12:30.115Z,56201.27
2019-01-30T12:15:00.091Z,56223.89
2019-01-30T12:17:29.987Z,56211.55
2019-01-30T12:19:59.830Z,56199.21
2019-01-30T12:22:29.714Z,56218.75
2019-01-30T12:24:59.835Z,56212.58
2019-01-30T12:27:29.730Z,56190.99
2019-01-30T12:29:59.565Z,56182.76
2019-01-30T12:32:29.435Z,56184.82
2019-01-30T12:34:59.285Z,56172.48
2019-01-30T12:37:29.386Z,56195.10
2019-01-30T12:39:59.484Z,56235.20
2019-01-30T12:42:29.367Z,56197.16
2019-01-30T12:44:59.466Z,56195.10
2019-01-30T12:47:29.388Z,56161.17
2019-01-30T12:49:59.259Z,56205.38
2019-01-30T12:52:29.132Z,56222.87
2019-01-30T12:54:59.084Z,56238.29
2019-01-30T12:57:29.189Z,56188.93
2019-01-30T12:59:59.306Z,56159.11
2019-01-30T13:02:29.259Z,56182.76
2019-01-30T13:04:59.148Z,56188.93
2019-01-30T13:07:28.994Z,56209.50
2019-01-30T13:09:59.364Z,56201.27
2019-01-30T13:12:29.292Z,56228.01
2019-01-30T13:14:59.604Z,56200.24
2019-01-30T13:17:29.447Z,56180.71
2019-01-30T13:19:59.360Z,56193.05
2019-01-30T13:22:29.191Z,56202.30
2019-01-30T13:24:59.259Z,56208.47
2019-01-30T13:27:29.121Z,56201.27
2019-01-30T13:29:58.958Z,56168.37
2019-01-30T13:32:29.089Z,56219.78
2019-01-30T13:34:59.163Z,56229.04
2019-01-30T13:37:29.302Z,56200.24
2019-01-30T13:39:59.132Z,56186.87
2019-01-30T13:42:28.999Z,56172.48
2019-01-30T13:44:59.111Z,56225.95
2019-01-30T13:47:29.308Z,56207.44
2019-01-30T13:49:59.555Z,56167.34
2019-01-30T13:52:29.377Z,56201.27
2019-01-30T13:54:59.267Z,56200.24
2019-01-30T13:57:29.157Z,56216.70
2019-01-30T13:59:59.017Z,56250.63
2019-01-30T14:02:28.874Z,56213.61
2019-01-30T14:04:59.806Z,56182.76
2019-01-30T14:07:30.192Z,56205.38
2019-01-30T14:10:00.079Z,56196.13
2019-01-30T14:12:30.041Z,56195.10
2019-01-30T14:14:59.877Z,56205.38
2019-01-30T14:17:32.199Z,56168.37
2019-01-30T14:20:01.337Z,56179.68
2019-01-30T14:22:31.397Z,56221.84
2019-01-30T14:25:01.188Z,56234.18
2019-01-30T14:27:31.079Z,56204.36
2019-01-30T14:30:00.971Z,56231.09
2019-01-30T14:32:30.831Z,56224.92
2019-01-30T14:35:10.561Z,56190.99
2019-01-30T14:37:32.546Z,56210.52
2019-01-30T14:40:02.376Z,56211.55
2019-01-30T14:42:32.255Z,56185.85
2019-01-30T14:45:02.109Z,56213.61
2019-01-30T14:47:32.044Z,56230.06
2019-01-30T14:50:02.116Z,56219.78
2019-01-30T14:52:32.001Z,56206.41
2019-01-30T14:55:02.100Z,56179.68
2019-01-30T14:57:31.963Z,56180.71
2019-01-30T15:00:02.109Z,56229.04
2019-01-30T15:02:32.232Z,56183.79
2019-01-30T15:05:02.205Z,56193.05
2019-01-30T15:07:32.278Z,56198.19
2019-01-30T15:10:02.175Z,56213.61
2019-01-30T15:12:32.039Z,56218.75
2019-01-30T15:15:01.957Z,56203.33
2019-01-30T15:17:32.030Z,56209.50
2019-01-30T15:20:01.907Z,56247.54
2019-01-30T15:22:31.792Z,56205.38
2019-01-30T15:25:01.661Z,56225.95
2019-01-30T15:27:31.495Z,56193.05
2019-01-30T15:30:01.335Z,56210.52
2019-01-30T15:32:31.797Z,56216.70
2019-01-30T15:35:01.717Z,56193.05
2019-01-30T15:37:31.600Z,56223.89
2019-01-30T15:40:01.723Z,56236.23
2019-01-30T15:42:31.819Z,56229.04
2019-01-30T15:45:01.689Z,56172.48
2019-01-30T15:47:31.804Z,56201.27
2019-01-30T15:50:01.764Z,56232.12
2019-01-30T15:52:31.635Z,56179.68
2019-01-30T15:55:01.557Z,56200.24
2019-01-30T15:57:31.445Z,56214.64
2019-01-30T16:00:01.322Z,56193.05
2019-01-30T16:02:31.293Z,56220.81
2019-01-30T16:05:01.501Z,56197.16
2019-01-30T16:07:31.716Z,56202.30
2019-01-30T16:10:02.120Z,56204.36
2019-01-30T16:12:32.121Z,56209.50
2019-01-30T16:15:01.975Z,56247.54
2019-01-30T16:17:31.933Z,56213.61
2019-01-30T16:20:01.789Z,56212.58
2019-01-30T16:22:31.629Z,56194.07
2019-01-30T16:25:08.654Z,56230.06
2019-01-30T16:27:33.067Z,56205.38
2019-01-30T16:30:03.188Z,56184.82
2019-01-30T16:32:33.047Z,56195.10
2019-01-30T16:35:02.917Z,56168.37
2019-01-30T16:37:32.843Z,56196.13
2019-01-30T16:40:02.722Z,56188.93
2019-01-30T16:42:32.573Z,56209.50
2019-01-30T16:45:02.937Z,56222.87
2019-01-30T16:47:32.801Z,56224.92
2019-01-30T16:50:02.677Z,56209.50
2019-01-30T16:52:32.887Z,56207.44
2019-01-30T16:55:02.760Z,56203.33
2019-01-30T16:57:32.625Z,56178.65
2019-01-30T17:00:02.516Z,56211.55
2019-01-30T17:02:32.593Z,56232.12
2019-01-30T17:05:02.436Z,56230.06
2019-01-30T17:07:32.307Z,56209.50
2019-01-30T17:10:02.403Z,56207.44
2019-01-30T17:12:32.275Z,56229.04
2019-01-30T17:15:02.137Z,56205.38
2019-01-30T17:17:32.164Z,56213.61
2019-01-30T17:20:02.075Z,56211.55
2019-01-30T17:22:32.220Z,56242.40
2019-01-30T17:25:02.079Z,56230.06
2019-01-30T17:27:32.048Z,56195.10
2019-01-30T17:30:02.306Z,56192.02
2019-01-30T17:32:32.193Z,56217.72
2019-01-30T17:35:02.058Z,56188.93
2019-01-30T17:37:32.024Z,56198.19
2019-01-30T17:40:02.643Z,56181.73
2019-01-30T17:42:33.114Z,56210.52
2019-01-30T17:45:03.059Z,56193.05
2019-01-30T17:47:32.956Z,56203.33
2019-01-30T17:50:02.819Z,56245.49
2019-01-30T17:52:32.686Z,56188.93
2019-01-30T17:55:04.436Z,56205.38
2019-01-30T17:57:34.492Z,56197.16
2019-01-30T18:00:09.099Z,56215.67
2019-01-30T18:02:38.970Z,56215.67
2019-01-30T18:05:09.636Z,56188.93
2019-01-30T18:07:39.748Z,56167.34
2019-01-30T18:10:10.564Z,56205.38
2019-01-30T18:12:40.699Z,56199.21
2019-01-30T18:15:11.785Z,56201.27
2019-01-30T18:17:41.798Z,56203.33
2019-01-30T18:20:13.627Z,56190.99
2019-01-30T18:22:44.564Z,56215.67
2019-01-30T18:25:15.857Z,56185.85
2019-01-30T18:27:46.099Z,56207.44
2019-01-30T18:30:17.811Z,56201.27
2019-01-30T18:32:47.887Z,56204.36
2019-01-30T18:35:18.203Z,56197.16
2019-01-30T18:37:48.207Z,56203.33
2019-01-30T18:40:20.339Z,56199.21
2019-01-30T18:42:50.456Z,56225.95
2019-01-30T18:45:25.271Z,56176.59
2019-01-30T18:47:55.771Z,56208.47
2019-01-30T18:50:27.027Z,56208.47
2019-01-30T18:52:57.414Z,56207.44
2019-01-30T18:55:27.346Z,56235.20
2019-01-30T18:57:57.271Z,56240.34
2019-01-30T19:00:30.685Z,56161.17
2019-01-30T19:03:02.325Z,56197.16
2019-01-30T19:05:33.117Z,56205.38
2019-01-30T19:08:03.141Z,56211.55
2019-01-30T19:10:33.113Z,56215.67
2019-01-30T19:13:03.390Z,56223.89
2019-01-30T19:15:33.326Z,56213.61
2019-01-30T19:18:03.383Z,56186.87
2019-01-30T19:20:39.373Z,56185.85
2019-01-30T19:23:09.331Z,56219.78
2019-01-30T19:25:39.524Z,56205.38
2019-01-30T19:28:10.016Z,56197.16
2019-01-30T19:30:40.129Z,56213.61
2019-01-30T19:33:11.263Z,56197.16
2019-01-30T19:35:41.243Z,56193.05
2019-01-30T19:38:11.209Z,56205.38
2019-01-30T19:40:41.125Z,56209.50
2019-01-30T19:43:10.995Z,56218.75
2019-01-30T19:45:40.860Z,56198.19
2019-01-30T19:48:10.899Z,56205.38
2019-01-30T19:50:40.838Z,56248.57
2019-01-30T19:53:10.855Z,56213.61
2019-01-30T19:55:40.913Z,56217.72
2019-01-30T19:58:12.318Z,56190.99
2019-01-30T20:00:46.291Z,56219.78
2019-01-30T20:03:22.654Z,56217.72
2019-01-30T20:05:52.992Z,56217.72
2019-01-30T20:08:22.942Z,56235.20
2019-01-30T20:10:53.299Z,56212.58
2019-01-30T20:13:23.467Z,56224.92
2019-01-30T20:15:53.425Z,56176.59
2019-01-30T20:18:23.408Z,56212.58
2019-01-30T20:20:53.378Z,56214.64
2019-01-30T20:23:23.332Z,56245.49
2019-01-30T20:25:53.306Z,56226.98
2019-01-30T20:28:23.248Z,56200.24
2019-01-30T20:30:53.239Z,56222.87
2019-01-30T20:33:23.129Z,56205.38
2019-01-30T20:35:53.002Z,56203.33
2019-01-30T20:38:24.004Z,56236.23
2019-01-30T20:40:54.113Z,56215.67
2019-01-30T20:43:24.227Z,56195.10
2019-01-30T20:45:54.242Z,56236.23
2019-01-30T20:48:24.325Z,56182.76
2019-01-30T20:50:54.189Z,56197.16
2019-01-30T20:53:24.166Z,56217.72
2019-01-30T20:55:54.032Z,56196.13
2019-01-30T20:58:23.953Z,56188.93
2019-01-30T21:00:54.159Z,56215.67
2019-01-30T21:03:24.141Z,56236.23
2019-01-30T21:05:54.233Z,56190.99
2019-01-30T21:08:24.438Z,56203.33
2019-01-30T21:10:54.347Z,56204.36
2019-01-30T21:13:24.237Z,56218.75
2019-01-30T21:15:54.181Z,56183.79
2019-01-30T21:18:24.439Z,56215.67
2019-01-30T21:20:54.513Z,56170.42
2019-01-30T21:23:24.409Z,56228.01
2019-01-30T21:25:54.287Z,56214.64
2019-01-30T21:28:24.225Z,56208.47
2019-01-30T21:30:54.351Z,56222.87
2019-01-30T21:33:24.199Z,56185.85
2019-01-30T21:35:54.277Z,56214.64
2019-01-30T21:38:24.181Z,56240.34
2019-01-30T21:40:54.324Z,56220.81
2019-01-30T21:43:25.066Z,56254.74
2019-01-30T21:45:54.988Z,56190.99
2019-01-30T21:48:24.953Z,56192.02
2019-01-30T21:50:55.052Z,56221.84
2019-01-30T21:53:25.131Z,56212.58
2019-01-30T21:55:55.019Z,56223.89
2019-01-30T21:58:24.878Z,56206.41
2019-01-30T22:00:54.948Z,56173.51
2019-01-30T22:03:24.895Z,56214.64
2019-01-30T22:05:54.809Z,56209.50
2019-01-30T22:08:24.873Z,56239.32
2019-01-30T22:10:54.791Z,56228.01
2019-01-30T22:13:24.605Z,56238.29
2019-01-30T22:15:54.427Z,56231.09
2019-01-30T22:18:24.414Z,56217.72
2019-01-30T22:20:54.298Z,56170.42
2019-01-30T22:23:24.375Z,56230.06
2019-01-30T22:25:54.184Z,56205.38
2019-01-30T22:28:24.056Z,56187.90
2019-01-30T22:30:53.868Z,56205.38
2019-01-30T22:33:23.750Z,56215.67
2019-01-30T22:35:53.645Z,56195.10
2019-01-30T22:38:23.724Z,56204.36
2019-01-30T22:40:53.568Z,56212.58
2019-01-30T22:43:23.433Z,56228.01
2019-01-30T22:45:53.290Z,56243.43
2019-01-30T22:48:23.114Z,56197.16
2019-01-30T22:50:53.179Z,56199.21
2019-01-30T22:53:23.040Z,56185.85
2019-01-30T22:55:52.869Z,56205.38
2019-01-30T22:58:22.737Z,56213.61
2019-01-30T23:01:41.992Z,56251.66
2019-01-30T23:04:57.180Z,56211.55
2019-01-30T23:08:28.968Z,56185.85
2019-01-30T23:11:52.373Z,56208.47
2019-01-30T23:14:56.318Z,56230.06
2019-01-30T23:18:05.791Z,56230.06
2019-01-30T23:20:46.396Z,56219.78
2019-01-30T23:24:00.090Z,56210.52
2019-01-30T23:26:43.438Z,56223.89
2019-01-30T23:30:03.648Z,56193.05
2019-01-30T23:33:25.111Z,56185.85
2019-01-30T23:36:29.515Z,56180.71
2019-01-30T23:39:40.611Z,56237.26
2019-01-30T23:43:27.267Z,56192.02
2019-01-30T23:47:01.745Z,56189.96
2019-01-30T23:50:24.559Z,56193.05
2019-01-30T23:53:22.017Z,56163.23
2019-01-30T23:56:08.433Z,56200.24
2019-01-30T23:59:43.478Z,56210.52
